sensor_id;sensor_type;location;lat;lon;timestamp;temperature;humidity
64111;DHT22;50401;48.188;11.566;2023-07-13T00:01:15;21.24;81.85
64111;DHT22;50401;48.188;11.566;2023-07-13T00:03:41;21.28;81.90
64111;DHT22;50401;48.188;11.566;2023-07-13T00:06:08;21.02;82.06
64111;DHT22;50401;48.188;11.566;2023-07-13T00:08:33;21.12;82.02
64111;DHT22;50401;48.188;11.566;2023-07-13T00:11:03;21.11;82.28
64111;DHT22;50401;48.188;11.566;2023-07-13T00:13:29;21.11;82.23
64111;DHT22;50401;48.188;11.566;2023-07-13T00:15:56;21.08;82.14
64111;DHT22;50401;48.188;11.566;2023-07-13T00:18:22;21.02;82.33
64111;DHT22;50401;48.188;11.566;2023-07-13T00:20:47;20.95;82.44
64111;DHT22;50401;48.188;11.566;2023-07-13T00:23:13;20.91;82.55
64111;DHT22;50401;48.188;11.566;2023-07-13T00:25:39;20.93;82.49
64111;DHT22;50401;48.188;11.566;2023-07-13T00:28:04;20.98;82.67
64111;DHT22;50401;48.188;11.566;2023-07-13T00:30:30;20.94;82.65
64111;DHT22;50401;48.188;11.566;2023-07-13T00:32:55;21.10;82.40
64111;DHT22;50401;48.188;11.566;2023-07-13T00:35:21;21.21;82.05
64111;DHT22;50401;48.188;11.566;2023-07-13T00:37:46;21.28;81.62
64111;DHT22;50401;48.188;11.566;2023-07-13T00:40:13;21.31;81.65
64111;DHT22;50401;48.188;11.566;2023-07-13T00:42:39;21.35;81.52
64111;DHT22;50401;48.188;11.566;2023-07-13T00:46:07;21.36;81.33
64111;DHT22;50401;48.188;11.566;2023-07-13T00:47:52;21.31;81.63
64111;DHT22;50401;48.188;11.566;2023-07-13T00:50:19;21.17;81.39
64111;DHT22;50401;48.188;11.566;2023-07-13T00:52:48;21.18;81.45
64111;DHT22;50401;48.188;11.566;2023-07-13T00:55:15;21.18;81.49
64111;DHT22;50401;48.188;11.566;2023-07-13T00:57:41;21.25;81.41
64111;DHT22;50401;48.188;11.566;2023-07-13T01:00:07;21.25;81.22
64111;DHT22;50401;48.188;11.566;2023-07-13T01:02:39;21.22;81.07
64111;DHT22;50401;48.188;11.566;2023-07-13T01:05:16;21.04;81.60
64111;DHT22;50401;48.188;11.566;2023-07-13T01:07:43;21.11;81.91
64111;DHT22;50401;48.188;11.566;2023-07-13T01:10:10;21.08;81.70
64111;DHT22;50401;48.188;11.566;2023-07-13T01:12:36;21.15;81.70
64111;DHT22;50401;48.188;11.566;2023-07-13T01:15:02;21.18;81.63
64111;DHT22;50401;48.188;11.566;2023-07-13T01:17:28;21.15;81.44
64111;DHT22;50401;48.188;11.566;2023-07-13T01:19:55;21.18;81.03
64111;DHT22;50401;48.188;11.566;2023-07-13T01:22:20;21.28;81.13
64111;DHT22;50401;48.188;11.566;2023-07-13T01:24:51;21.25;80.94
64111;DHT22;50401;48.188;11.566;2023-07-13T01:27:21;21.28;81.09
64111;DHT22;50401;48.188;11.566;2023-07-13T01:29:47;21.31;80.99
64111;DHT22;50401;48.188;11.566;2023-07-13T01:32:20;21.32;80.69
64111;DHT22;50401;48.188;11.566;2023-07-13T01:34:48;21.38;81.12
64111;DHT22;50401;48.188;11.566;2023-07-13T01:37:14;21.38;80.94
64111;DHT22;50401;48.188;11.566;2023-07-13T01:39:39;21.38;81.01
64111;DHT22;50401;48.188;11.566;2023-07-13T01:42:05;21.32;81.10
64111;DHT22;50401;48.188;11.566;2023-07-13T01:44:31;21.28;81.59
64111;DHT22;50401;48.188;11.566;2023-07-13T01:46:57;21.19;82.08
64111;DHT22;50401;48.188;11.566;2023-07-13T01:49:22;21.18;82.32
64111;DHT22;50401;48.188;11.566;2023-07-13T01:51:48;21.08;82.70
64111;DHT22;50401;48.188;11.566;2023-07-13T01:54:13;21.07;82.79
64111;DHT22;50401;48.188;11.566;2023-07-13T01:56:38;21.08;82.86
64111;DHT22;50401;48.188;11.566;2023-07-13T01:59:05;21.04;82.97
64111;DHT22;50401;48.188;11.566;2023-07-13T02:01:30;21.08;82.98
64111;DHT22;50401;48.188;11.566;2023-07-13T02:03:55;21.10;82.86
64111;DHT22;50401;48.188;11.566;2023-07-13T02:06:21;21.08;82.57
64111;DHT22;50401;48.188;11.566;2023-07-13T02:08:46;21.11;82.25
64111;DHT22;50401;48.188;11.566;2023-07-13T02:11:12;21.08;82.33
64111;DHT22;50401;48.188;11.566;2023-07-13T02:13:37;21.12;82.20
64111;DHT22;50401;48.188;11.566;2023-07-13T02:16:03;21.07;82.26
64111;DHT22;50401;48.188;11.566;2023-07-13T02:18:28;21.08;82.26
64111;DHT22;50401;48.188;11.566;2023-07-13T02:20:54;21.10;82.25
64111;DHT22;50401;48.188;11.566;2023-07-13T02:23:19;21.10;82.08
64111;DHT22;50401;48.188;11.566;2023-07-13T02:25:45;21.12;82.23
64111;DHT22;50401;48.188;11.566;2023-07-13T02:28:10;21.12;82.31
64111;DHT22;50401;48.188;11.566;2023-07-13T02:30:36;21.10;82.44
64111;DHT22;50401;48.188;11.566;2023-07-13T02:33:01;21.11;82.95
64111;DHT22;50401;48.188;11.566;2023-07-13T02:35:26;21.15;82.65
64111;DHT22;50401;48.188;11.566;2023-07-13T02:37:52;21.38;81.78
64111;DHT22;50401;48.188;11.566;2023-07-13T02:40:17;21.45;81.59
64111;DHT22;50401;48.188;11.566;2023-07-13T02:42:43;21.38;81.71
64111;DHT22;50401;48.188;11.566;2023-07-13T02:45:08;21.26;81.83
64111;DHT22;50401;48.188;11.566;2023-07-13T02:47:35;21.42;81.39
64111;DHT22;50401;48.188;11.566;2023-07-13T02:50:01;21.56;80.86
64111;DHT22;50401;48.188;11.566;2023-07-13T02:52:26;21.53;80.99
64111;DHT22;50401;48.188;11.566;2023-07-13T02:54:52;21.52;80.68
64111;DHT22;50401;48.188;11.566;2023-07-13T02:57:17;21.35;81.09
64111;DHT22;50401;48.188;11.566;2023-07-13T02:59:43;21.21;81.41
64111;DHT22;50401;48.188;11.566;2023-07-13T03:02:08;21.12;81.55
64111;DHT22;50401;48.188;11.566;2023-07-13T03:04:36;21.17;81.44
64111;DHT22;50401;48.188;11.566;2023-07-13T03:07:01;21.08;81.61
64111;DHT22;50401;48.188;11.566;2023-07-13T03:09:27;21.04;81.70
64111;DHT22;50401;48.188;11.566;2023-07-13T03:11:55;20.98;81.73
64111;DHT22;50401;48.188;11.566;2023-07-13T03:14:22;21.04;81.61
64111;DHT22;50401;48.188;11.566;2023-07-13T03:16:47;21.04;81.63
64111;DHT22;50401;48.188;11.566;2023-07-13T03:19:13;21.04;81.53
64111;DHT22;50401;48.188;11.566;2023-07-13T03:21:38;20.97;81.72
64111;DHT22;50401;48.188;11.566;2023-07-13T03:24:04;20.95;81.93
64111;DHT22;50401;48.188;11.566;2023-07-13T03:26:29;20.90;81.87
64111;DHT22;50401;48.188;11.566;2023-07-13T03:28:55;20.95;81.82
64111;DHT22;50401;48.188;11.566;2023-07-13T03:31:24;20.73;81.83
64111;DHT22;50401;48.188;11.566;2023-07-13T03:33:50;20.67;81.94
64111;DHT22;50401;48.188;11.566;2023-07-13T03:36:18;20.69;81.94
64111;DHT22;50401;48.188;11.566;2023-07-13T03:38:52;20.57;81.58
64111;DHT22;50401;48.188;11.566;2023-07-13T03:41:19;20.57;81.96
64111;DHT22;50401;48.188;11.566;2023-07-13T03:43:44;20.70;82.10
64111;DHT22;50401;48.188;11.566;2023-07-13T03:46:10;20.69;82.16
64111;DHT22;50401;48.188;11.566;2023-07-13T03:48:35;20.69;81.93
64111;DHT22;50401;48.188;11.566;2023-07-13T03:51:01;20.70;81.66
64111;DHT22;50401;48.188;11.566;2023-07-13T03:53:26;20.72;81.74
64111;DHT22;50401;48.188;11.566;2023-07-13T03:55:52;20.72;81.76
64111;DHT22;50401;48.188;11.566;2023-07-13T04:00:54;20.79;81.36
64111;DHT22;50401;48.188;11.566;2023-07-13T04:03:20;20.79;80.52
64111;DHT22;50401;48.188;11.566;2023-07-13T04:05:46;20.81;80.33
64111;DHT22;50401;48.188;11.566;2023-07-13T04:08:12;20.74;80.58
64111;DHT22;50401;48.188;11.566;2023-07-13T04:10:37;20.67;80.96
64111;DHT22;50401;48.188;11.566;2023-07-13T04:13:04;20.67;80.93
64111;DHT22;50401;48.188;11.566;2023-07-13T04:15:30;20.59;80.62
64111;DHT22;50401;48.188;11.566;2023-07-13T04:17:56;20.32;81.03
64111;DHT22;50401;48.188;11.566;2023-07-13T04:20:22;20.35;81.07
64111;DHT22;50401;48.188;11.566;2023-07-13T04:22:47;20.36;81.29
64111;DHT22;50401;48.188;11.566;2023-07-13T04:25:13;20.42;80.98
64111;DHT22;50401;48.188;11.566;2023-07-13T04:27:38;20.49;80.75
64111;DHT22;50401;48.188;11.566;2023-07-13T04:30:05;20.53;80.45
64111;DHT22;50401;48.188;11.566;2023-07-13T04:32:31;20.50;80.62
64111;DHT22;50401;48.188;11.566;2023-07-13T04:34:57;20.60;80.71
64111;DHT22;50401;48.188;11.566;2023-07-13T04:37:25;20.57;80.75
64111;DHT22;50401;48.188;11.566;2023-07-13T04:39:51;20.59;80.46
64111;DHT22;50401;48.188;11.566;2023-07-13T04:42:16;20.63;80.43
64111;DHT22;50401;48.188;11.566;2023-07-13T04:44:50;20.65;80.54
64111;DHT22;50401;48.188;11.566;2023-07-13T04:47:16;20.59;80.72
64111;DHT22;50401;48.188;11.566;2023-07-13T04:49:41;20.52;80.49
64111;DHT22;50401;48.188;11.566;2023-07-13T04:52:07;20.52;80.54
64111;DHT22;50401;48.188;11.566;2023-07-13T04:54:34;20.48;80.48
64111;DHT22;50401;48.188;11.566;2023-07-13T04:56:59;20.26;80.72
64111;DHT22;50401;48.188;11.566;2023-07-13T04:59:25;20.24;80.96
64111;DHT22;50401;48.188;11.566;2023-07-13T05:01:50;20.33;80.96
64111;DHT22;50401;48.188;11.566;2023-07-13T05:04:16;20.42;80.67
64111;DHT22;50401;48.188;11.566;2023-07-13T05:06:41;20.50;80.69
64111;DHT22;50401;48.188;11.566;2023-07-13T05:09:06;20.59;80.55
64111;DHT22;50401;48.188;11.566;2023-07-13T05:11:32;20.60;80.10
64111;DHT22;50401;48.188;11.566;2023-07-13T05:13:58;20.57;80.57
64111;DHT22;50401;48.188;11.566;2023-07-13T05:16:23;20.50;80.80
64111;DHT22;50401;48.188;11.566;2023-07-13T05:18:49;20.56;80.89
64111;DHT22;50401;48.188;11.566;2023-07-13T05:21:14;20.62;80.67
64111;DHT22;50401;48.188;11.566;2023-07-13T05:23:40;20.66;80.69
64111;DHT22;50401;48.188;11.566;2023-07-13T05:26:07;20.66;80.55
64111;DHT22;50401;48.188;11.566;2023-07-13T05:28:32;20.66;80.68
64111;DHT22;50401;48.188;11.566;2023-07-13T05:30:58;20.57;80.58
64111;DHT22;50401;48.188;11.566;2023-07-13T05:33:24;20.62;80.71
64111;DHT22;50401;48.188;11.566;2023-07-13T05:35:49;20.55;81.16
64111;DHT22;50401;48.188;11.566;2023-07-13T05:38:15;20.46;81.05
64111;DHT22;50401;48.188;11.566;2023-07-13T05:40:43;20.42;81.00
64111;DHT22;50401;48.188;11.566;2023-07-13T05:43:08;20.38;81.07
64111;DHT22;50401;48.188;11.566;2023-07-13T05:45:33;20.28;81.10
64111;DHT22;50401;48.188;11.566;2023-07-13T05:47:59;20.35;81.02
64111;DHT22;50401;48.188;11.566;2023-07-13T05:50:25;20.45;81.26
64111;DHT22;50401;48.188;11.566;2023-07-13T05:52:51;20.55;81.29
64111;DHT22;50401;48.188;11.566;2023-07-13T05:55:17;20.79;80.85
64111;DHT22;50401;48.188;11.566;2023-07-13T05:57:43;20.98;80.57
64111;DHT22;50401;48.188;11.566;2023-07-13T06:00:08;21.43;79.31
64111;DHT22;50401;48.188;11.566;2023-07-13T06:02:34;21.47;78.69
64111;DHT22;50401;48.188;11.566;2023-07-13T06:04:59;21.56;78.99
64111;DHT22;50401;48.188;11.566;2023-07-13T06:07:24;21.50;78.83
64111;DHT22;50401;48.188;11.566;2023-07-13T06:09:50;21.53;78.42
64111;DHT22;50401;48.188;11.566;2023-07-13T06:12:16;21.66;78.23
64111;DHT22;50401;48.188;11.566;2023-07-13T06:14:41;22.22;77.64
64111;DHT22;50401;48.188;11.566;2023-07-13T06:17:07;23.18;75.09
64111;DHT22;50401;48.188;11.566;2023-07-13T06:19:33;23.47;73.95
64111;DHT22;50401;48.188;11.566;2023-07-13T06:21:58;23.86;72.57
64111;DHT22;50401;48.188;11.566;2023-07-13T06:24:24;23.81;71.64
64111;DHT22;50401;48.188;11.566;2023-07-13T06:26:50;23.81;71.71
64111;DHT22;50401;48.188;11.566;2023-07-13T06:29:15;23.84;70.72
64111;DHT22;50401;48.188;11.566;2023-07-13T06:31:41;23.91;70.66
64111;DHT22;50401;48.188;11.566;2023-07-13T06:34:06;24.37;69.77
64111;DHT22;50401;48.188;11.566;2023-07-13T06:36:31;24.91;68.10
64111;DHT22;50401;48.188;11.566;2023-07-13T06:38:57;24.78;67.52
64111;DHT22;50401;48.188;11.566;2023-07-13T06:41:22;24.54;68.08
64111;DHT22;50401;48.188;11.566;2023-07-13T06:43:50;24.15;68.55
64111;DHT22;50401;48.188;11.566;2023-07-13T06:46:15;23.70;69.09
64111;DHT22;50401;48.188;11.566;2023-07-13T06:48:42;23.36;69.28
64111;DHT22;50401;48.188;11.566;2023-07-13T06:51:08;23.05;70.63
64111;DHT22;50401;48.188;11.566;2023-07-13T06:53:33;22.83;71.49
64111;DHT22;50401;48.188;11.566;2023-07-13T06:55:59;22.64;72.00
64111;DHT22;50401;48.188;11.566;2023-07-13T06:58:24;22.28;72.54
64111;DHT22;50401;48.188;11.566;2023-07-13T07:00:51;22.42;72.16
64111;DHT22;50401;48.188;11.566;2023-07-13T07:03:17;22.42;71.28
64111;DHT22;50401;48.188;11.566;2023-07-13T07:05:42;22.39;71.46
64111;DHT22;50401;48.188;11.566;2023-07-13T07:08:08;22.57;70.87
64111;DHT22;50401;48.188;11.566;2023-07-13T07:10:37;22.70;70.58
64111;DHT22;50401;48.188;11.566;2023-07-13T07:13:07;22.91;69.84
64111;DHT22;50401;48.188;11.566;2023-07-13T07:15:35;23.12;69.15
64111;DHT22;50401;48.188;11.566;2023-07-13T07:18:03;23.33;68.33
64111;DHT22;50401;48.188;11.566;2023-07-13T07:20:31;23.42;67.14
64111;DHT22;50401;48.188;11.566;2023-07-13T07:22:59;23.15;66.88
64111;DHT22;50401;48.188;11.566;2023-07-13T07:25:24;22.92;67.55
64111;DHT22;50401;48.188;11.566;2023-07-13T07:27:49;22.87;67.27
64111;DHT22;50401;48.188;11.566;2023-07-13T07:30:15;22.87;67.64
64111;DHT22;50401;48.188;11.566;2023-07-13T07:32:40;22.88;67.06
64111;DHT22;50401;48.188;11.566;2023-07-13T07:35:07;22.78;66.59
64111;DHT22;50401;48.188;11.566;2023-07-13T07:37:33;22.84;66.44
64111;DHT22;50401;48.188;11.566;2023-07-13T07:39:58;22.61;66.46
64111;DHT22;50401;48.188;11.566;2023-07-13T07:42:24;22.67;66.28
64111;DHT22;50401;48.188;11.566;2023-07-13T07:44:50;22.64;66.60
64111;DHT22;50401;48.188;11.566;2023-07-13T07:47:15;22.57;66.72
64111;DHT22;50401;48.188;11.566;2023-07-13T07:49:41;22.54;66.94
64111;DHT22;50401;48.188;11.566;2023-07-13T07:52:06;22.70;68.15
64111;DHT22;50401;48.188;11.566;2023-07-13T07:54:32;22.80;67.57
64111;DHT22;50401;48.188;11.566;2023-07-13T07:56:57;22.88;67.31
64111;DHT22;50401;48.188;11.566;2023-07-13T07:59:24;22.84;67.57
64111;DHT22;50401;48.188;11.566;2023-07-13T08:01:49;22.70;67.66
64111;DHT22;50401;48.188;11.566;2023-07-13T08:04:16;22.47;67.93
64111;DHT22;50401;48.188;11.566;2023-07-13T08:06:41;22.39;68.25
64111;DHT22;50401;48.188;11.566;2023-07-13T08:09:06;22.40;68.80
64111;DHT22;50401;48.188;11.566;2023-07-13T08:11:33;22.40;68.40
64111;DHT22;50401;48.188;11.566;2023-07-13T08:13:58;22.43;68.59
64111;DHT22;50401;48.188;11.566;2023-07-13T08:16:24;22.36;68.03
64111;DHT22;50401;48.188;11.566;2023-07-13T08:18:51;22.33;68.14
64111;DHT22;50401;48.188;11.566;2023-07-13T08:21:16;22.32;67.88
64111;DHT22;50401;48.188;11.566;2023-07-13T08:23:42;22.23;66.58
64111;DHT22;50401;48.188;11.566;2023-07-13T08:26:07;22.02;65.20
64111;DHT22;50401;48.188;11.566;2023-07-13T08:28:33;22.00;65.68
64111;DHT22;50401;48.188;11.566;2023-07-13T08:31:05;22.02;65.23
64111;DHT22;50401;48.188;11.566;2023-07-13T08:33:33;22.05;63.99
64111;DHT22;50401;48.188;11.566;2023-07-13T08:35:59;22.01;64.24
64111;DHT22;50401;48.188;11.566;2023-07-13T08:38:24;22.05;63.21
64111;DHT22;50401;48.188;11.566;2023-07-13T08:40:55;22.09;62.55
64111;DHT22;50401;48.188;11.566;2023-07-13T08:43:33;22.02;62.02
64111;DHT22;50401;48.188;11.566;2023-07-13T08:46:13;22.18;61.51
64111;DHT22;50401;48.188;11.566;2023-07-13T08:49:04;22.30;61.48
64111;DHT22;50401;48.188;11.566;2023-07-13T08:54:02;22.46;60.75
64111;DHT22;50401;48.188;11.566;2023-07-13T08:56:32;22.57;60.25
64111;DHT22;50401;48.188;11.566;2023-07-13T08:59:01;22.59;59.63
64111;DHT22;50401;48.188;11.566;2023-07-13T09:04:32;22.49;59.87
64111;DHT22;50401;48.188;11.566;2023-07-13T09:07:34;22.29;60.24
64111;DHT22;50401;48.188;11.566;2023-07-13T09:11:03;22.23;59.83
64111;DHT22;50401;48.188;11.566;2023-07-13T09:15:46;22.26;59.25
64111;DHT22;50401;48.188;11.566;2023-07-13T09:18:32;22.32;59.91
64111;DHT22;50401;48.188;11.566;2023-07-13T09:21:20;22.29;58.95
64111;DHT22;50401;48.188;11.566;2023-07-13T09:23:47;22.42;58.51
64111;DHT22;50401;48.188;11.566;2023-07-13T09:26:22;22.52;58.78
64111;DHT22;50401;48.188;11.566;2023-07-13T09:28:55;22.63;58.14
64111;DHT22;50401;48.188;11.566;2023-07-13T09:31:34;22.80;57.31
64111;DHT22;50401;48.188;11.566;2023-07-13T09:34:02;22.92;55.81
64111;DHT22;50401;48.188;11.566;2023-07-13T09:36:30;22.91;56.26
64111;DHT22;50401;48.188;11.566;2023-07-13T09:44:13;22.67;56.89
64111;DHT22;50401;48.188;11.566;2023-07-13T09:46:59;22.70;57.38
64111;DHT22;50401;48.188;11.566;2023-07-13T09:49:26;22.77;57.16
64111;DHT22;50401;48.188;11.566;2023-07-13T09:52:00;23.05;56.44
64111;DHT22;50401;48.188;11.566;2023-07-13T09:54:26;23.32;55.38
64111;DHT22;50401;48.188;11.566;2023-07-13T09:56:56;23.71;54.58
64111;DHT22;50401;48.188;11.566;2023-07-13T09:59:24;23.91;54.29
64111;DHT22;50401;48.188;11.566;2023-07-13T10:01:50;24.23;53.66
64111;DHT22;50401;48.188;11.566;2023-07-13T10:04:18;24.82;51.50
64111;DHT22;50401;48.188;11.566;2023-07-13T10:06:44;25.00;51.46
64111;DHT22;50401;48.188;11.566;2023-07-13T10:09:15;24.84;50.97
64111;DHT22;50401;48.188;11.566;2023-07-13T10:11:40;24.47;50.31
64111;DHT22;50401;48.188;11.566;2023-07-13T10:14:14;24.47;51.34
64111;DHT22;50401;48.188;11.566;2023-07-13T10:16:41;24.39;51.27
64111;DHT22;50401;48.188;11.566;2023-07-13T10:19:21;24.32;50.54
64111;DHT22;50401;48.188;11.566;2023-07-13T10:22:14;24.20;51.89
64111;DHT22;50401;48.188;11.566;2023-07-13T10:24:43;24.46;51.60
64111;DHT22;50401;48.188;11.566;2023-07-13T10:27:41;24.78;51.04
64111;DHT22;50401;48.188;11.566;2023-07-13T10:30:20;24.96;50.29
64111;DHT22;50401;48.188;11.566;2023-07-13T10:32:48;24.92;48.98
64111;DHT22;50401;48.188;11.566;2023-07-13T10:35:15;25.33;49.45
64111;DHT22;50401;48.188;11.566;2023-07-13T10:38:03;25.76;48.70
64111;DHT22;50401;48.188;11.566;2023-07-13T10:40:33;26.16;48.54
64111;DHT22;50401;48.188;11.566;2023-07-13T10:43:01;26.03;48.02
64111;DHT22;50401;48.188;11.566;2023-07-13T10:45:31;25.69;47.62
64111;DHT22;50401;48.188;11.566;2023-07-13T10:47:58;25.71;47.60
64111;DHT22;50401;48.188;11.566;2023-07-13T10:50:25;25.69;47.73
64111;DHT22;50401;48.188;11.566;2023-07-13T10:52:55;25.81;47.70
64111;DHT22;50401;48.188;11.566;2023-07-13T10:58:28;25.95;47.34
64111;DHT22;50401;48.188;11.566;2023-07-13T11:03:34;26.26;47.15
64111;DHT22;50401;48.188;11.566;2023-07-13T11:08:57;26.23;46.96
64111;DHT22;50401;48.188;11.566;2023-07-13T11:13:57;25.96;46.84
64111;DHT22;50401;48.188;11.566;2023-07-13T11:16:42;25.97;46.46
64111;DHT22;50401;48.188;11.566;2023-07-13T11:24:57;25.67;47.43
64111;DHT22;50401;48.188;11.566;2023-07-13T11:27:37;25.65;47.66
64111;DHT22;50401;48.188;11.566;2023-07-13T11:30:08;25.84;47.35
64111;DHT22;50401;48.188;11.566;2023-07-13T11:32:35;25.99;46.58
64111;DHT22;50401;48.188;11.566;2023-07-13T11:35:01;26.06;46.62
64111;DHT22;50401;48.188;11.566;2023-07-13T11:37:28;25.95;47.58
64111;DHT22;50401;48.188;11.566;2023-07-13T11:39:54;25.57;47.65
64111;DHT22;50401;48.188;11.566;2023-07-13T11:42:21;25.45;48.74
64111;DHT22;50401;48.188;11.566;2023-07-13T11:44:48;25.45;46.26
64111;DHT22;50401;48.188;11.566;2023-07-13T11:47:22;24.84;48.09
64111;DHT22;50401;48.188;11.566;2023-07-13T11:49:49;24.89;49.67
64111;DHT22;50401;48.188;11.566;2023-07-13T11:52:21;25.02;50.16
64111;DHT22;50401;48.188;11.566;2023-07-13T11:54:55;24.58;48.33
64111;DHT22;50401;48.188;11.566;2023-07-13T11:57:27;24.63;48.73
64111;DHT22;50401;48.188;11.566;2023-07-13T11:59:54;24.69;49.65
64111;DHT22;50401;48.188;11.566;2023-07-13T12:02:39;24.98;49.80
64111;DHT22;50401;48.188;11.566;2023-07-13T12:05:09;25.00;47.94
64111;DHT22;50401;48.188;11.566;2023-07-13T12:07:35;25.30;47.91
64111;DHT22;50401;48.188;11.566;2023-07-13T12:10:24;25.55;48.30
64111;DHT22;50401;48.188;11.566;2023-07-13T12:12:56;25.65;48.34
64111;DHT22;50401;48.188;11.566;2023-07-13T12:15:23;25.52;47.65
64111;DHT22;50401;48.188;11.566;2023-07-13T12:17:49;25.64;47.94
64111;DHT22;50401;48.188;11.566;2023-07-13T12:20:20;25.60;47.26
64111;DHT22;50401;48.188;11.566;2023-07-13T12:22:48;25.75;47.42
64111;DHT22;50401;48.188;11.566;2023-07-13T12:25:14;25.71;48.03
64111;DHT22;50401;48.188;11.566;2023-07-13T12:27:40;25.96;47.65
64111;DHT22;50401;48.188;11.566;2023-07-13T12:30:24;26.00;46.49
64111;DHT22;50401;48.188;11.566;2023-07-13T12:33:06;26.09;46.80
64111;DHT22;50401;48.188;11.566;2023-07-13T12:35:40;26.09;47.69
64111;DHT22;50401;48.188;11.566;2023-07-13T12:38:10;26.06;47.06
64111;DHT22;50401;48.188;11.566;2023-07-13T12:40:36;26.16;47.83
64111;DHT22;50401;48.188;11.566;2023-07-13T12:43:03;26.33;47.37
64111;DHT22;50401;48.188;11.566;2023-07-13T12:45:32;26.34;46.91
64111;DHT22;50401;48.188;11.566;2023-07-13T12:48:18;26.45;46.27
64111;DHT22;50401;48.188;11.566;2023-07-13T12:50:47;26.51;45.60
64111;DHT22;50401;48.188;11.566;2023-07-13T12:53:20;26.33;44.64
64111;DHT22;50401;48.188;11.566;2023-07-13T12:55:49;26.31;44.02
64111;DHT22;50401;48.188;11.566;2023-07-13T12:58:41;26.19;44.58
64111;DHT22;50401;48.188;11.566;2023-07-13T13:01:10;26.31;44.06
64111;DHT22;50401;48.188;11.566;2023-07-13T13:03:39;26.30;43.42
64111;DHT22;50401;48.188;11.566;2023-07-13T13:08:41;26.44;43.91
64111;DHT22;50401;48.188;11.566;2023-07-13T13:11:08;26.37;43.58
64111;DHT22;50401;48.188;11.566;2023-07-13T13:13:35;26.16;43.44
64111;DHT22;50401;48.188;11.566;2023-07-13T13:16:20;25.82;44.09
64111;DHT22;50401;48.188;11.566;2023-07-13T13:18:46;26.03;44.39
64111;DHT22;50401;48.188;11.566;2023-07-13T13:21:12;26.09;44.16
64111;DHT22;50401;48.188;11.566;2023-07-13T13:23:38;26.06;44.02
64111;DHT22;50401;48.188;11.566;2023-07-13T13:26:09;26.17;44.05
64111;DHT22;50401;48.188;11.566;2023-07-13T13:28:35;26.12;44.31
64111;DHT22;50401;48.188;11.566;2023-07-13T13:31:00;26.24;44.14
64111;DHT22;50401;48.188;11.566;2023-07-13T13:33:26;26.31;44.05
64111;DHT22;50401;48.188;11.566;2023-07-13T13:35:51;26.27;43.22
64111;DHT22;50401;48.188;11.566;2023-07-13T13:38:20;26.28;43.66
64111;DHT22;50401;48.188;11.566;2023-07-13T13:40:48;26.38;43.95
64111;DHT22;50401;48.188;11.566;2023-07-13T13:43:22;26.40;43.56
64111;DHT22;50401;48.188;11.566;2023-07-13T13:45:51;26.43;43.44
64111;DHT22;50401;48.188;11.566;2023-07-13T13:48:20;26.36;43.74
64111;DHT22;50401;48.188;11.566;2023-07-13T13:50:46;25.93;43.12
64111;DHT22;50401;48.188;11.566;2023-07-13T13:53:13;25.96;44.01
64111;DHT22;50401;48.188;11.566;2023-07-13T13:55:41;26.00;44.30
64111;DHT22;50401;48.188;11.566;2023-07-13T13:58:10;26.02;44.08
64111;DHT22;50401;48.188;11.566;2023-07-13T14:00:37;26.00;44.65
64111;DHT22;50401;48.188;11.566;2023-07-13T14:03:03;26.20;43.86
64111;DHT22;50401;48.188;11.566;2023-07-13T14:05:29;26.13;44.12
64111;DHT22;50401;48.188;11.566;2023-07-13T14:07:55;26.07;44.20
64111;DHT22;50401;48.188;11.566;2023-07-13T14:10:22;26.09;44.59
64111;DHT22;50401;48.188;11.566;2023-07-13T14:12:52;26.19;44.34
64111;DHT22;50401;48.188;11.566;2023-07-13T14:15:27;26.17;44.42
64111;DHT22;50401;48.188;11.566;2023-07-13T14:17:54;26.16;43.91
64111;DHT22;50401;48.188;11.566;2023-07-13T14:20:21;26.37;44.79
64111;DHT22;50401;48.188;11.566;2023-07-13T14:22:47;26.43;43.35
64111;DHT22;50401;48.188;11.566;2023-07-13T14:25:15;26.37;43.55
64111;DHT22;50401;48.188;11.566;2023-07-13T14:27:42;26.51;44.12
64111;DHT22;50401;48.188;11.566;2023-07-13T14:30:17;26.56;43.40
64111;DHT22;50401;48.188;11.566;2023-07-13T14:32:42;26.40;43.94
64111;DHT22;50401;48.188;11.566;2023-07-13T14:35:12;25.89;43.70
64111;DHT22;50401;48.188;11.566;2023-07-13T14:37:39;25.93;45.23
64111;DHT22;50401;48.188;11.566;2023-07-13T14:40:15;26.19;45.43
64111;DHT22;50401;48.188;11.566;2023-07-13T14:42:42;26.31;44.54
64111;DHT22;50401;48.188;11.566;2023-07-13T14:45:23;26.21;44.34
64111;DHT22;50401;48.188;11.566;2023-07-13T14:47:50;26.19;44.59
64111;DHT22;50401;48.188;11.566;2023-07-13T14:50:19;26.14;44.21
64111;DHT22;50401;48.188;11.566;2023-07-13T14:52:45;25.99;44.22
64111;DHT22;50401;48.188;11.566;2023-07-13T14:55:16;25.99;44.19
64111;DHT22;50401;48.188;11.566;2023-07-13T14:57:41;26.07;45.21
64111;DHT22;50401;48.188;11.566;2023-07-13T15:02:39;26.26;44.63
64111;DHT22;50401;48.188;11.566;2023-07-13T15:05:27;26.17;44.35
64111;DHT22;50401;48.188;11.566;2023-07-13T15:08:02;25.99;45.01
64111;DHT22;50401;48.188;11.566;2023-07-13T15:10:30;26.07;45.17
64111;DHT22;50401;48.188;11.566;2023-07-13T15:13:04;26.12;45.14
64111;DHT22;50401;48.188;11.566;2023-07-13T15:15:39;26.06;44.96
64111;DHT22;50401;48.188;11.566;2023-07-13T15:18:09;26.06;45.35
64111;DHT22;50401;48.188;11.566;2023-07-13T15:20:36;26.03;45.08
64111;DHT22;50401;48.188;11.566;2023-07-13T15:23:02;26.04;45.10
64111;DHT22;50401;48.188;11.566;2023-07-13T15:25:30;25.90;44.59
64111;DHT22;50401;48.188;11.566;2023-07-13T15:27:57;25.90;45.54
64111;DHT22;50401;48.188;11.566;2023-07-13T15:30:25;25.82;45.75
64111;DHT22;50401;48.188;11.566;2023-07-13T15:32:51;25.89;45.48
64111;DHT22;50401;48.188;11.566;2023-07-13T15:35:21;25.60;45.55
64111;DHT22;50401;48.188;11.566;2023-07-13T15:37:48;25.55;45.44
64111;DHT22;50401;48.188;11.566;2023-07-13T15:40:15;26.00;45.59
64111;DHT22;50401;48.188;11.566;2023-07-13T15:42:41;26.09;45.05
64111;DHT22;50401;48.188;11.566;2023-07-13T15:45:19;26.17;44.76
64111;DHT22;50401;48.188;11.566;2023-07-13T15:47:46;26.10;44.85
64111;DHT22;50401;48.188;11.566;2023-07-13T15:50:13;26.09;44.79
64111;DHT22;50401;48.188;11.566;2023-07-13T15:52:39;26.04;45.10
64111;DHT22;50401;48.188;11.566;2023-07-13T15:55:12;26.02;44.94
64111;DHT22;50401;48.188;11.566;2023-07-13T15:57:39;25.89;45.08
64111;DHT22;50401;48.188;11.566;2023-07-13T16:00:25;25.76;45.15